createdAt,value
2019-05-10T00:00:34.832Z,16.33
2019-05-10T00:03:21.834Z,16.93
2019-05-10T00:06:09.308Z,9.73
2019-05-10T00:08:46.613Z,11.00
2019-05-10T00:11:38.300Z,15.07
2019-05-10T00:14:31.776Z,13.60
2019-05-10T00:17:12.344Z,11.77
2019-05-10T00:19:41.746Z,9.90
2019-05-10T00:22:10.952Z,9.77
2019-05-10T00:24:40.197Z,11.60
2019-05-10T00:27:09.434Z,10.30
2019-05-10T00:29:38.719Z,11.47
2019-05-10T00:32:08.005Z,11.87
2019-05-10T00:34:37.252Z,11.47
2019-05-10T00:37:06.446Z,11.37
2019-05-10T00:39:35.697Z,13.10
2019-05-10T00:42:04.985Z,9.17
2019-05-10T00:44:34.205Z,9.23
2019-05-10T00:47:03.602Z,15.07
2019-05-10T00:49:32.875Z,12.73
2019-05-10T00:52:02.079Z,14.73
2019-05-10T00:54:31.383Z,14.00
2019-05-10T00:57:00.587Z,14.10
2019-05-10T00:59:29.919Z,13.57
2019-05-10T01:01:59.218Z,12.00
2019-05-10T01:04:28.505Z,15.30
2019-05-10T01:06:57.940Z,13.90
2019-05-10T01:09:27.259Z,16.67
2019-05-10T01:11:56.466Z,14.50
2019-05-10T01:20:07.070Z,14.73
2019-05-10T01:22:36.356Z,18.27
2019-05-10T01:25:07.725Z,22.33
2019-05-10T01:27:37.118Z,17.20
2019-05-10T01:30:27.439Z,15.77
2019-05-10T01:32:56.887Z,16.30
2019-05-10T01:35:26.208Z,16.93
2019-05-10T01:37:55.670Z,15.03
2019-05-10T01:40:24.971Z,19.00
2019-05-10T01:42:54.332Z,18.53
2019-05-10T01:45:23.636Z,17.63
2019-05-10T01:47:52.949Z,18.83
2019-05-10T01:50:22.196Z,20.03
2019-05-10T01:52:51.492Z,18.63
2019-05-10T01:55:20.836Z,16.30
2019-05-10T01:57:50.034Z,16.87
2019-05-10T02:00:19.518Z,19.80
2019-05-10T02:02:48.818Z,24.40
2019-05-10T02:05:18.203Z,22.97
2019-05-10T02:07:47.387Z,24.10
2019-05-10T02:10:16.815Z,19.63
2019-05-10T02:12:46.075Z,23.23
2019-05-10T02:15:15.350Z,28.23
2019-05-10T02:17:44.702Z,26.27
2019-05-10T02:20:14.224Z,22.27
2019-05-10T02:22:43.553Z,20.67
2019-05-10T02:25:13.250Z,23.57
2019-05-10T02:27:42.517Z,19.47
2019-05-10T02:30:12.066Z,22.07
2019-05-10T02:32:41.330Z,19.87
2019-05-10T02:35:10.891Z,17.77
2019-05-10T02:37:40.159Z,18.37
2019-05-10T02:40:10.513Z,15.40
2019-05-10T02:42:39.807Z,17.03
2019-05-10T02:45:09.738Z,14.80
2019-05-10T02:47:39.075Z,16.10
2019-05-10T02:50:08.678Z,13.47
2019-05-10T02:52:37.940Z,11.67
2019-05-10T02:55:07.570Z,9.77
2019-05-10T02:57:37.737Z,9.50
2019-05-10T03:00:07.948Z,12.23
2019-05-10T03:02:37.883Z,11.27
2019-05-10T03:05:08.589Z,10.70
2019-05-10T03:07:39.019Z,11.20
2019-05-10T03:10:11.980Z,13.37
2019-05-10T03:12:42.047Z,11.63
2019-05-10T03:15:13.452Z,16.63
2019-05-10T03:17:42.900Z,12.70
2019-05-10T03:20:12.846Z,11.80
2019-05-10T03:22:43.688Z,15.10
2019-05-10T03:25:14.579Z,13.50
2019-05-10T03:28:02.981Z,14.70
2019-05-10T03:30:32.488Z,15.63
2019-05-10T03:33:01.747Z,18.60
2019-05-10T03:35:31.415Z,14.53
2019-05-10T03:38:00.721Z,16.93
2019-05-10T03:40:29.990Z,18.63
2019-05-10T03:42:59.250Z,16.60
2019-05-10T03:45:28.616Z,14.50
2019-05-10T03:47:57.872Z,11.20
2019-05-10T03:50:27.090Z,12.43
2019-05-10T03:52:56.470Z,12.87
2019-05-10T03:55:25.741Z,12.50
2019-05-10T03:57:55.002Z,8.67
2019-05-10T04:00:24.214Z,12.50
2019-05-10T04:02:53.515Z,9.37
2019-05-10T04:05:22.767Z,5.07
2019-05-10T04:07:52.155Z,10.43
2019-05-10T04:10:21.433Z,9.30
2019-05-10T04:12:50.715Z,13.97
2019-05-10T04:15:19.995Z,12.40
2019-05-10T04:17:50.405Z,8.47
2019-05-10T04:20:20.065Z,9.73
2019-05-10T04:22:49.346Z,6.90
2019-05-10T04:25:18.738Z,11.73
2019-05-10T04:27:47.939Z,10.63
2019-05-10T04:30:17.489Z,13.53
2019-05-10T04:32:46.768Z,10.13
2019-05-10T04:35:16.061Z,14.40
2019-05-10T04:37:45.496Z,11.63
2019-05-10T04:40:14.748Z,15.07
2019-05-10T04:42:44.010Z,12.43
2019-05-10T04:45:14.147Z,11.73
2019-05-10T04:47:43.809Z,17.17
2019-05-10T04:50:13.214Z,15.33
2019-05-10T04:52:42.501Z,14.20
2019-05-10T04:55:11.759Z,14.03
2019-05-10T04:57:49.967Z,14.57
2019-05-10T05:00:12.266Z,13.60
2019-05-10T05:02:41.522Z,15.80
2019-05-10T05:05:10.842Z,18.93
2019-05-10T05:07:40.197Z,14.77
2019-05-10T05:10:09.924Z,17.50
2019-05-10T05:12:39.223Z,13.30
2019-05-10T05:15:09.156Z,15.10
2019-05-10T05:17:38.426Z,16.43
2019-05-10T05:20:07.928Z,15.77
2019-05-10T05:22:49.137Z,17.23
2019-05-10T05:25:21.770Z,13.17
2019-05-10T05:28:05.348Z,14.13
2019-05-10T05:30:20.563Z,12.80
2019-05-10T05:32:49.921Z,12.60
2019-05-10T05:35:19.192Z,13.50
2019-05-10T05:37:48.423Z,10.70
2019-05-10T05:40:17.924Z,10.43
2019-05-10T05:42:47.201Z,11.70
2019-05-10T05:45:16.596Z,9.00
2019-05-10T05:47:45.918Z,11.53
2019-05-10T05:50:15.117Z,5.20
2019-05-10T05:52:44.440Z,10.17
2019-05-10T05:55:13.768Z,8.33
2019-05-10T05:57:43.138Z,7.80
2019-05-10T06:00:12.971Z,7.97
2019-05-10T06:02:44.814Z,7.83
2019-05-10T06:05:13.237Z,4.97
2019-05-10T06:07:42.497Z,4.63
2019-05-10T06:10:17.267Z,4.50
2019-05-10T06:12:44.443Z,9.33
2019-05-10T06:15:13.875Z,7.30
2019-05-10T06:17:43.174Z,8.70
2019-05-10T06:20:13.329Z,9.20
2019-05-10T06:22:43.972Z,6.23
2019-05-10T06:25:13.674Z,7.73
2019-05-10T06:27:43.263Z,7.20
2019-05-10T06:30:13.206Z,7.70
2019-05-10T06:32:42.471Z,7.13
2019-05-10T06:35:30.950Z,5.73
2019-05-10T06:38:03.323Z,5.63
2019-05-10T06:40:39.429Z,6.60
2019-05-10T06:43:06.887Z,5.40
2019-05-10T06:45:34.735Z,6.93
2019-05-10T06:48:04.019Z,8.43
2019-05-10T06:50:33.431Z,6.53
2019-05-10T06:53:07.340Z,10.07
2019-05-10T06:55:33.708Z,6.10
2019-05-10T06:58:03.029Z,7.60
2019-05-10T07:00:32.399Z,5.47
2019-05-10T07:03:01.673Z,6.73
2019-05-10T07:05:30.894Z,6.67
2019-05-10T07:08:13.899Z,8.70
2019-05-10T07:10:37.188Z,6.97
2019-05-10T07:13:06.831Z,6.37
2019-05-10T07:15:41.899Z,8.00
2019-05-10T07:18:07.410Z,6.40
2019-05-10T07:20:36.740Z,6.03
2019-05-10T07:23:07.764Z,6.03
2019-05-10T07:25:37.898Z,7.40
2019-05-10T07:28:09.557Z,5.33
2019-05-10T07:30:41.783Z,7.40
2019-05-10T07:33:11.308Z,5.50
2019-05-10T07:35:40.576Z,7.57
2019-05-10T07:38:09.899Z,8.67
2019-05-10T07:40:39.169Z,6.93
2019-05-10T07:43:08.518Z,10.23
2019-05-10T07:45:37.812Z,8.63
2019-05-10T07:48:08.070Z,9.00
2019-05-10T07:50:42.566Z,5.57
2019-05-10T07:53:09.019Z,8.93
2019-05-10T07:55:38.348Z,8.50
2019-05-10T07:58:07.553Z,7.47
2019-05-10T08:00:38.063Z,8.63
2019-05-10T08:03:16.010Z,9.43
2019-05-10T08:06:01.372Z,6.80
2019-05-10T08:08:39.075Z,7.27
2019-05-10T08:11:08.753Z,6.43
2019-05-10T08:13:39.335Z,5.83
2019-05-10T08:16:11.844Z,6.83
2019-05-10T08:18:42.292Z,9.40
2019-05-10T08:21:21.477Z,9.13
2019-05-10T08:23:43.905Z,5.07
2019-05-10T08:26:20.241Z,6.40
2019-05-10T08:28:44.660Z,5.83
2019-05-10T08:31:14.190Z,4.60
2019-05-10T08:33:52.506Z,5.43
2019-05-10T08:36:14.323Z,8.53
2019-05-10T08:38:46.219Z,2.77
2019-05-10T08:41:18.168Z,8.13
2019-05-10T08:43:45.431Z,6.77
2019-05-10T08:46:19.513Z,8.00
2019-05-10T08:48:50.435Z,4.47
2019-05-10T08:51:16.781Z,5.80
2019-05-10T08:53:47.209Z,6.13
2019-05-10T08:56:23.427Z,6.17
2019-05-10T08:58:48.006Z,4.57
2019-05-10T09:01:26.529Z,6.93
2019-05-10T09:03:55.208Z,3.77
2019-05-10T09:06:19.244Z,4.50
2019-05-10T09:08:52.929Z,8.80
2019-05-10T09:11:19.502Z,6.07
2019-05-10T09:13:48.796Z,5.67
2019-05-10T09:16:18.002Z,5.83
2019-05-10T09:18:51.243Z,10.50
2019-05-10T09:21:18.225Z,11.63
2019-05-10T09:23:52.974Z,10.27
2019-05-10T09:26:18.506Z,7.13
2019-05-10T09:28:52.650Z,8.33
2019-05-10T09:31:22.747Z,4.13
2019-05-10T09:33:51.492Z,6.03
2019-05-10T09:36:23.131Z,3.97
2019-05-10T09:38:52.678Z,5.53
2019-05-10T09:41:22.696Z,5.77
2019-05-10T09:43:53.757Z,4.80
2019-05-10T09:46:23.170Z,3.97
2019-05-10T09:48:54.704Z,3.57
2019-05-10T09:51:27.952Z,4.73
2019-05-10T09:53:54.415Z,3.93
2019-05-10T09:56:23.692Z,2.73
2019-05-10T09:58:53.115Z,4.10
2019-05-10T10:01:22.401Z,4.13
2019-05-10T10:03:51.586Z,6.30
2019-05-10T10:06:21.727Z,7.13
2019-05-10T10:08:53.302Z,4.97
2019-05-10T10:11:22.041Z,4.13
2019-05-10T10:13:59.026Z,4.73
2019-05-10T10:16:22.297Z,4.43
2019-05-10T10:18:51.817Z,3.70
2019-05-10T10:21:30.648Z,3.97
2019-05-10T10:23:51.960Z,2.87
2019-05-10T10:26:22.435Z,5.63
2019-05-10T10:28:55.259Z,2.53
2019-05-10T10:31:29.483Z,3.80
2019-05-10T10:33:57.998Z,3.77
2019-05-10T10:36:27.224Z,4.17
2019-05-10T10:38:55.864Z,2.83
2019-05-10T10:41:26.237Z,5.37
2019-05-10T10:43:58.333Z,3.60
2019-05-10T10:46:28.015Z,8.03
2019-05-10T10:48:57.629Z,7.13
2019-05-10T10:51:32.143Z,4.10
2019-05-10T10:53:58.468Z,3.00
2019-05-10T10:56:27.809Z,3.87
2019-05-10T10:58:58.086Z,2.80
2019-05-10T11:01:33.171Z,2.53
2019-05-10T11:04:03.689Z,2.93
2019-05-10T11:06:29.560Z,4.33
2019-05-10T11:08:58.914Z,5.60
2019-05-10T11:11:30.828Z,3.47
2019-05-10T11:14:06.824Z,3.77
2019-05-10T11:16:30.076Z,3.73
2019-05-10T11:19:03.708Z,3.40
2019-05-10T11:21:31.262Z,5.63
2019-05-10T11:24:01.468Z,4.17
2019-05-10T11:26:32.793Z,3.67
2019-05-10T11:29:01.872Z,5.17
2019-05-10T11:31:31.345Z,2.83
2019-05-10T11:34:01.565Z,3.57
2019-05-10T11:36:31.335Z,7.30
2019-05-10T11:39:01.520Z,4.23
2019-05-10T11:41:31.569Z,3.30
2019-05-10T11:44:05.241Z,4.47
2019-05-10T11:46:32.020Z,4.20
2019-05-10T11:49:01.841Z,4.83
2019-05-10T11:51:31.764Z,5.10
2019-05-10T11:54:01.267Z,5.13
2019-05-10T11:56:32.323Z,5.37
2019-05-10T12:01:32.358Z,5.30
2019-05-10T12:06:32.467Z,5.50
2019-05-10T12:09:04.528Z,4.63
2019-05-10T12:11:34.114Z,4.50
2019-05-10T12:14:03.726Z,5.73
2019-05-10T12:16:42.155Z,6.27
2019-05-10T12:19:19.960Z,5.23
2019-05-10T12:21:42.603Z,7.03
2019-05-10T12:24:32.423Z,4.23
2019-05-10T12:26:18.916Z,6.13
2019-05-10T12:26:20.049Z,5.60
2019-05-10T12:29:17.189Z,8.43
2019-05-10T12:31:47.577Z,6.17
2019-05-10T12:34:15.854Z,4.77
2019-05-10T12:36:45.186Z,4.13
2019-05-10T12:39:15.037Z,4.27
2019-05-10T12:41:48.326Z,7.90
2019-05-10T12:44:15.388Z,5.63
2019-05-10T12:46:44.714Z,5.13
2019-05-10T12:49:13.953Z,6.43
2019-05-10T12:51:43.375Z,4.07
2019-05-10T12:54:12.831Z,8.13
2019-05-10T12:56:44.560Z,8.27
2019-05-10T12:59:13.312Z,5.47
2019-05-10T13:01:42.651Z,6.63
2019-05-10T13:04:14.639Z,5.73
2019-05-10T13:06:43.040Z,5.67
2019-05-10T13:09:12.475Z,7.87
2019-05-10T13:11:41.880Z,4.13
2019-05-10T13:14:11.202Z,6.47
2019-05-10T13:16:40.526Z,6.00
2019-05-10T13:19:14.086Z,6.50
2019-05-10T13:21:44.787Z,6.27
2019-05-10T13:24:14.020Z,4.03
2019-05-10T13:26:43.276Z,9.47
2019-05-10T13:29:19.950Z,8.17
2019-05-10T13:31:49.302Z,6.87
2019-05-10T13:34:18.570Z,6.23
2019-05-10T13:36:47.912Z,6.43
2019-05-10T13:42:09.593Z,6.47
2019-05-10T13:44:42.927Z,8.17
2019-05-10T13:47:08.898Z,5.53
2019-05-10T13:49:38.275Z,6.13
2019-05-10T13:52:07.538Z,5.50
2019-05-10T13:54:37.970Z,5.93
2019-05-10T13:57:07.435Z,7.33
2019-05-10T13:59:36.670Z,7.20
2019-05-10T14:02:06.009Z,4.87
2019-05-10T14:04:38.571Z,6.10
2019-05-10T14:07:25.295Z,5.43
2019-05-10T14:09:54.506Z,7.63
2019-05-10T14:12:25.806Z,4.67
2019-05-10T14:15:02.955Z,6.53
2019-05-10T14:17:26.001Z,5.23
2019-05-10T14:19:55.351Z,6.37
2019-05-10T14:22:24.739Z,6.93
2019-05-10T14:24:58.863Z,6.77
2019-05-10T14:27:29.882Z,10.43
2019-05-10T14:29:55.907Z,5.87
2019-05-10T14:32:25.325Z,7.27
2019-05-10T14:34:54.708Z,6.50
2019-05-10T14:37:24.192Z,8.87
2019-05-10T14:39:53.643Z,8.90
2019-05-10T14:42:30.836Z,7.13
2019-05-10T14:44:53.770Z,8.40
2019-05-10T14:47:23.067Z,7.83
2019-05-10T14:49:52.474Z,7.07
2019-05-10T14:52:22.671Z,6.37
2019-05-10T14:54:55.502Z,6.93
2019-05-10T14:57:23.193Z,10.20
2019-05-10T14:59:52.505Z,7.53
2019-05-10T15:02:22.645Z,6.63
2019-05-10T15:04:52.802Z,7.10
2019-05-10T15:07:22.131Z,7.80
2019-05-10T15:09:54.316Z,9.70
2019-05-10T15:12:22.920Z,7.93
2019-05-10T15:14:52.378Z,9.93
2019-05-10T15:17:21.773Z,7.70
2019-05-10T15:19:57.352Z,7.80
2019-05-10T15:22:23.086Z,8.17
2019-05-10T15:24:53.084Z,9.57
2019-05-10T15:27:24.013Z,6.00
2019-05-10T15:29:58.633Z,7.47
2019-05-10T15:32:24.495Z,8.70
2019-05-10T15:35:06.078Z,9.17
2019-05-10T15:37:24.666Z,10.00
2019-05-10T15:39:53.987Z,6.90
2019-05-10T15:42:23.230Z,8.83
2019-05-10T15:44:52.485Z,7.73
2019-05-10T15:47:22.445Z,11.33
2019-05-10T15:49:54.613Z,8.97
2019-05-10T15:52:23.607Z,9.13
2019-05-10T15:54:53.477Z,9.53
2019-05-10T15:57:22.932Z,7.43
2019-05-10T15:59:56.438Z,9.00
2019-05-10T16:02:23.325Z,8.20
2019-05-10T16:04:52.740Z,9.20
2019-05-10T16:07:22.051Z,7.87
2019-05-10T16:09:54.447Z,8.50
2019-05-10T16:12:22.323Z,10.47
2019-05-10T16:14:51.626Z,6.90
2019-05-10T16:17:23.603Z,7.63
2019-05-10T16:19:59.798Z,6.90
2019-05-10T16:22:25.226Z,7.83
2019-05-10T16:25:00.896Z,5.43
2019-05-10T16:27:25.343Z,6.13
2019-05-10T16:29:54.804Z,5.60
2019-05-10T16:32:29.280Z,6.37
2019-05-10T16:34:55.097Z,5.80
2019-05-10T16:37:24.351Z,5.67
2019-05-10T16:39:53.687Z,4.70
2019-05-10T16:42:27.883Z,5.97
2019-05-10T16:44:54.026Z,7.00
2019-05-10T16:47:23.583Z,5.57
2019-05-10T16:49:54.965Z,4.00
2019-05-10T16:52:26.169Z,5.37
2019-05-10T16:54:57.908Z,4.83
2019-05-10T16:57:26.259Z,4.23
2019-05-10T16:59:55.708Z,5.47
2019-05-10T17:02:26.459Z,5.77
2019-05-10T17:04:55.810Z,6.13
2019-05-10T17:07:25.097Z,6.13
2019-05-10T17:09:55.075Z,7.30
2019-05-10T17:12:27.494Z,4.63
2019-05-10T17:15:09.434Z,3.17
2019-05-10T17:17:39.279Z,4.23
2019-05-10T17:20:14.275Z,5.30
2019-05-10T17:22:41.194Z,3.30
2019-05-10T17:25:11.016Z,5.40
2019-05-10T17:27:40.310Z,5.03
2019-05-10T17:30:09.780Z,4.43
2019-05-10T17:32:39.181Z,6.80
2019-05-10T17:35:09.000Z,4.30
2019-05-10T17:37:38.461Z,4.97
2019-05-10T17:40:10.216Z,6.10
2019-05-10T17:42:41.377Z,3.57
2019-05-10T17:45:10.752Z,5.27
2019-05-10T17:47:40.136Z,4.40
2019-05-10T17:50:10.150Z,4.47
2019-05-10T17:52:39.550Z,3.97
2019-05-10T17:55:16.083Z,3.60
2019-05-10T17:57:40.818Z,4.77
2019-05-10T18:00:11.288Z,4.27
2019-05-10T18:02:40.610Z,6.30
2019-05-10T18:05:20.304Z,4.63
2019-05-10T18:07:49.737Z,5.43
2019-05-10T18:10:19.243Z,4.47
2019-05-10T18:12:48.545Z,6.03
2019-05-10T18:15:17.973Z,4.87
2019-05-10T18:17:47.415Z,5.53
2019-05-10T18:20:16.921Z,5.87
2019-05-10T18:22:46.283Z,5.60
2019-05-10T18:25:20.278Z,4.77
2019-05-10T18:27:46.625Z,5.97
2019-05-10T18:30:16.323Z,5.80
2019-05-10T18:32:45.994Z,6.33
2019-05-10T18:35:17.032Z,3.83
2019-05-10T18:37:46.535Z,4.63
2019-05-10T18:40:16.222Z,4.90
2019-05-10T18:42:45.827Z,4.43
2019-05-10T18:45:15.472Z,6.93
2019-05-10T18:47:44.752Z,5.67
2019-05-10T18:50:14.150Z,4.17
2019-05-10T18:52:43.527Z,7.77
2019-05-10T18:55:13.716Z,10.63
2019-05-10T18:57:45.261Z,5.63
2019-05-10T19:00:17.593Z,5.80
2019-05-10T19:02:49.719Z,5.53
2019-05-10T19:05:17.000Z,5.20
2019-05-10T19:08:01.467Z,3.93
2019-05-10T19:10:17.846Z,4.87
2019-05-10T19:12:47.767Z,5.63
2019-05-10T19:15:27.332Z,7.83
2019-05-10T19:17:56.692Z,6.10
2019-05-10T19:20:25.970Z,8.70
2019-05-10T19:22:55.289Z,7.17
2019-05-10T19:25:24.596Z,9.43
2019-05-10T19:27:53.866Z,6.47
2019-05-10T19:30:23.304Z,5.90
2019-05-10T19:32:56.528Z,12.20
2019-05-10T19:35:23.651Z,10.53
2019-05-10T19:37:52.972Z,8.43
2019-05-10T19:40:22.217Z,7.37
2019-05-10T19:42:51.624Z,6.60
2019-05-10T19:45:21.273Z,7.30
2019-05-10T19:47:55.671Z,8.80
2019-05-10T19:50:24.180Z,7.70
2019-05-10T19:53:05.601Z,8.13
2019-05-10T19:55:34.970Z,6.70
2019-05-10T19:58:04.400Z,6.13
2019-05-10T20:00:52.833Z,6.63
2019-05-10T20:03:22.171Z,9.20
2019-05-10T20:05:51.507Z,7.97
2019-05-10T20:08:20.833Z,10.17
2019-05-10T20:10:50.215Z,9.67
2019-05-10T20:13:19.411Z,5.77
2019-05-10T20:15:48.767Z,6.93
2019-05-10T20:18:18.101Z,8.97
2019-05-10T20:20:47.390Z,9.03
2019-05-10T20:23:16.659Z,7.97
2019-05-10T20:25:46.006Z,8.00
2019-05-10T20:28:15.284Z,7.23
2019-05-10T20:30:44.665Z,6.97
2019-05-10T20:33:33.057Z,6.60
2019-05-10T20:36:02.381Z,6.20
2019-05-10T20:38:31.698Z,11.30
2019-05-10T20:41:01.077Z,9.23
2019-05-10T20:43:30.540Z,7.73
2019-05-10T20:45:59.797Z,8.37
2019-05-10T20:48:29.047Z,12.90
2019-05-10T20:51:17.440Z,8.57
2019-05-10T20:53:48.195Z,9.40
2019-05-10T20:56:17.685Z,10.80
2019-05-10T20:58:47.026Z,8.27
2019-05-10T21:01:16.420Z,7.40
2019-05-10T21:03:45.632Z,7.17
2019-05-10T21:06:14.954Z,7.80
2019-05-10T21:08:44.216Z,8.27
2019-05-10T21:11:13.392Z,10.17
2019-05-10T21:13:42.620Z,9.93
2019-05-10T21:16:11.908Z,9.93
2019-05-10T21:18:41.208Z,11.33
2019-05-10T21:21:10.567Z,12.57
2019-05-10T21:23:39.817Z,8.40
2019-05-10T21:26:09.138Z,9.50
2019-05-10T21:28:38.392Z,11.00
2019-05-10T21:31:07.729Z,9.97
2019-05-10T21:33:36.976Z,12.37
2019-05-10T21:36:06.219Z,12.83
2019-05-10T21:38:35.429Z,8.50
2019-05-10T21:41:04.776Z,11.17
2019-05-10T21:43:34.098Z,11.80
2019-05-10T21:46:03.383Z,9.90
2019-05-10T21:48:32.664Z,8.30
2019-05-10T21:51:01.959Z,10.23
2019-05-10T21:53:31.161Z,10.67
2019-05-10T21:56:00.423Z,11.53
2019-05-10T21:58:29.629Z,10.80
2019-05-10T22:00:58.836Z,11.97
2019-05-10T22:03:28.025Z,10.43
2019-05-10T22:05:57.392Z,15.30
2019-05-10T22:08:26.687Z,13.07
2019-05-10T22:10:56.043Z,14.60
2019-05-10T22:13:25.339Z,14.73
2019-05-10T22:15:54.675Z,13.10
2019-05-10T22:18:23.894Z,14.87
2019-05-10T22:20:53.160Z,14.90
2019-05-10T22:23:22.515Z,13.03
2019-05-10T22:25:51.917Z,13.67
2019-05-10T22:28:21.219Z,14.67
2019-05-10T22:30:50.551Z,15.37
2019-05-10T22:33:19.907Z,17.83
2019-05-10T22:35:49.342Z,17.07
2019-05-10T22:38:18.610Z,17.03
2019-05-10T22:40:47.880Z,18.20
2019-05-10T22:43:17.115Z,16.50
2019-05-10T22:45:46.518Z,18.37
2019-05-10T22:48:15.948Z,17.73
2019-05-10T22:50:45.207Z,19.03
2019-05-10T22:53:14.488Z,21.23
2019-05-10T22:55:43.780Z,22.40
2019-05-10T22:58:13.138Z,20.83
2019-05-10T23:00:42.346Z,22.87
2019-05-10T23:03:11.568Z,21.47
2019-05-10T23:05:40.798Z,18.90
2019-05-10T23:08:10.091Z,23.37
2019-05-10T23:10:39.465Z,21.07
2019-05-10T23:13:27.811Z,24.07
2019-05-10T23:15:57.100Z,23.37
2019-05-10T23:18:26.438Z,22.47
2019-05-10T23:20:55.722Z,20.67
2019-05-10T23:23:24.948Z,17.83
2019-05-10T23:25:54.352Z,21.20
2019-05-10T23:28:23.649Z,19.43
2019-05-10T23:30:53.039Z,22.23
2019-05-10T23:33:22.303Z,22.53
2019-05-10T23:35:51.554Z,20.93
2019-05-10T23:38:20.894Z,22.57
2019-05-10T23:40:50.180Z,21.67
2019-05-10T23:43:19.442Z,24.60
2019-05-10T23:45:48.642Z,22.30
2019-05-10T23:48:17.926Z,21.73
2019-05-10T23:50:47.278Z,23.97
2019-05-10T23:53:16.541Z,22.97
2019-05-10T23:55:45.736Z,23.10
2019-05-10T23:58:15.035Z,25.57
